createdAt,value
2022-09-13T00:00:09.946Z,13.63
2022-09-13T00:01:09.956Z,13.57
2022-09-13T00:02:09.938Z,13.60
2022-09-13T00:03:09.853Z,13.49
2022-09-13T00:04:09.847Z,13.52
2022-09-13T00:05:09.842Z,13.59
2022-09-13T00:06:09.839Z,13.59
2022-09-13T00:07:09.835Z,13.54
2022-09-13T00:08:09.873Z,13.67
2022-09-13T00:09:09.821Z,13.59
2022-09-13T00:10:09.816Z,13.57
2022-09-13T00:11:09.809Z,13.56
2022-09-13T00:12:09.804Z,13.57
2022-09-13T00:13:09.814Z,13.59
2022-09-13T00:14:09.792Z,13.57
2022-09-13T00:15:09.806Z,13.53
2022-09-13T00:16:09.885Z,13.63
2022-09-13T00:17:09.780Z,13.63
2022-09-13T00:18:09.765Z,13.62
2022-09-13T00:19:09.773Z,13.60
2022-09-13T00:20:09.760Z,13.60
2022-09-13T00:21:09.756Z,13.54
2022-09-13T00:22:09.748Z,13.56
2022-09-13T00:23:09.745Z,13.65
2022-09-13T00:24:09.731Z,13.65
2022-09-13T00:25:09.730Z,13.56
2022-09-13T00:26:09.722Z,13.65
2022-09-13T00:27:09.725Z,13.57
2022-09-13T00:28:09.717Z,13.60
2022-09-13T00:29:09.732Z,13.53
2022-09-13T00:30:09.702Z,13.57
2022-09-13T00:31:09.701Z,13.67
2022-09-13T00:32:09.687Z,13.62
2022-09-13T00:33:09.689Z,13.53
2022-09-13T00:34:09.682Z,13.54
2022-09-13T00:35:09.695Z,13.54
2022-09-13T00:36:09.671Z,13.62
2022-09-13T00:37:09.666Z,13.60
2022-09-13T00:38:09.659Z,13.54
2022-09-13T00:39:09.656Z,13.54
2022-09-13T00:40:09.683Z,13.62
2022-09-13T00:41:09.642Z,13.56
2022-09-13T00:42:09.638Z,13.60
2022-09-13T00:43:09.654Z,13.50
2022-09-13T00:44:09.631Z,13.52
2022-09-13T00:45:09.621Z,13.53
2022-09-13T00:46:09.674Z,13.57
2022-09-13T00:47:09.611Z,13.50
2022-09-13T00:48:09.606Z,13.49
2022-09-13T00:49:09.597Z,13.52
2022-09-13T00:50:09.595Z,13.50
2022-09-13T00:51:09.587Z,13.47
2022-09-13T00:52:09.595Z,13.50
2022-09-13T00:53:09.578Z,13.52
2022-09-13T00:54:09.587Z,13.47
2022-09-13T00:55:09.565Z,13.54
2022-09-13T00:56:09.565Z,13.54
2022-09-13T00:57:09.551Z,13.52
2022-09-13T00:58:09.548Z,13.46
2022-09-13T00:59:09.539Z,13.50
2022-09-13T01:00:09.538Z,13.47
2022-09-13T01:01:09.571Z,13.44
2022-09-13T01:02:09.573Z,13.59
2022-09-13T01:03:09.521Z,13.46
2022-09-13T01:04:12.583Z,13.42
2022-09-13T01:05:09.508Z,13.47
2022-09-13T01:06:16.672Z,13.44
2022-09-13T01:08:13.495Z,13.50
2022-09-13T01:09:13.485Z,13.44
2022-09-13T01:11:17.459Z,13.42
2022-09-13T01:12:17.441Z,13.42
2022-09-13T01:14:21.447Z,13.42
2022-09-13T01:15:21.433Z,13.38
2022-09-13T01:17:25.407Z,13.38
2022-09-13T01:18:25.398Z,13.31
2022-09-13T01:20:29.389Z,13.39
2022-09-13T01:21:29.373Z,13.37
2022-09-13T01:23:33.387Z,13.35
2022-09-13T01:24:33.376Z,13.37
2022-09-13T01:26:26.291Z,13.30
2022-09-13T01:27:26.277Z,13.28
2022-09-13T01:29:30.295Z,13.33
2022-09-13T01:30:30.282Z,13.20
2022-09-13T01:32:23.414Z,13.27
2022-09-13T01:33:23.408Z,13.33
2022-09-13T01:35:27.401Z,13.39
2022-09-13T01:36:27.385Z,13.37
2022-09-13T01:38:31.384Z,13.31
2022-09-13T01:39:31.378Z,13.35
2022-09-13T01:41:35.359Z,13.37
2022-09-13T01:42:35.346Z,13.39
2022-09-13T01:44:29.465Z,13.28
2022-09-13T01:45:29.517Z,13.39
2022-09-13T01:47:33.442Z,13.19
2022-09-13T01:48:33.424Z,13.20
2022-09-13T01:50:37.415Z,13.22
2022-09-13T01:51:37.400Z,13.23
2022-09-13T01:53:41.514Z,13.18
2022-09-13T01:54:41.456Z,13.30
2022-09-13T01:56:34.387Z,13.23
2022-09-13T01:57:34.372Z,13.28
2022-09-13T01:59:38.356Z,13.18
2022-09-13T02:00:38.345Z,13.19
2022-09-13T02:02:31.661Z,13.22
2022-09-13T02:03:31.607Z,13.19
2022-09-13T02:05:35.603Z,13.18
2022-09-13T02:06:35.586Z,13.16
2022-09-13T02:08:28.696Z,13.16
2022-09-13T02:09:28.688Z,13.20
2022-09-13T02:11:32.915Z,13.20
2022-09-13T02:12:32.899Z,13.18
2022-09-13T02:14:36.887Z,13.09
2022-09-13T02:15:36.872Z,13.08
2022-09-13T02:17:29.972Z,13.11
2022-09-13T02:18:29.963Z,13.11
2022-09-13T02:20:33.972Z,13.04
2022-09-13T02:21:33.949Z,13.01
2022-09-13T02:22:33.947Z,13.03
2022-09-13T02:23:33.940Z,12.95
2022-09-13T02:24:33.933Z,12.97
2022-09-13T02:25:33.930Z,12.98
2022-09-13T02:26:33.922Z,12.95
2022-09-13T02:27:33.917Z,12.94
2022-09-13T02:28:33.909Z,12.94
2022-09-13T02:29:33.904Z,12.90
2022-09-13T02:30:33.899Z,12.97
2022-09-13T02:31:33.941Z,12.93
2022-09-13T02:32:33.885Z,12.93
2022-09-13T02:33:33.880Z,12.93
2022-09-13T02:34:33.875Z,12.94
2022-09-13T02:35:33.869Z,12.98
2022-09-13T02:36:33.864Z,12.98
2022-09-13T02:37:33.856Z,12.97
2022-09-13T02:38:33.852Z,12.93
2022-09-13T02:39:33.915Z,12.97
2022-09-13T02:40:33.838Z,12.98
2022-09-13T02:41:33.833Z,13.00
2022-09-13T02:42:33.827Z,13.01
2022-09-13T02:43:33.823Z,13.09
2022-09-13T02:44:33.815Z,13.09
2022-09-13T02:45:33.819Z,13.15
2022-09-13T02:46:33.802Z,13.19
2022-09-13T02:47:33.798Z,13.20
2022-09-13T02:48:37.175Z,13.20
2022-09-13T02:49:33.785Z,13.20
2022-09-13T02:50:33.782Z,13.18
2022-09-13T02:51:33.774Z,13.22
2022-09-13T02:52:33.766Z,13.16
2022-09-13T02:53:33.759Z,13.18
2022-09-13T02:54:33.755Z,13.19
2022-09-13T02:55:33.750Z,13.22
2022-09-13T02:56:33.743Z,13.22
2022-09-13T02:57:33.737Z,13.16
2022-09-13T02:58:33.732Z,13.23
2022-09-13T02:59:33.726Z,13.23
2022-09-13T03:00:33.719Z,13.28
2022-09-13T03:01:33.748Z,13.25
2022-09-13T03:02:33.745Z,13.23
2022-09-13T03:03:33.702Z,13.30
2022-09-13T03:04:33.694Z,13.33
2022-09-13T03:05:33.696Z,13.27
2022-09-13T03:06:33.684Z,13.35
2022-09-13T03:07:33.678Z,13.38
2022-09-13T03:08:33.671Z,13.35
2022-09-13T03:09:33.667Z,13.31
2022-09-13T03:10:33.661Z,13.38
2022-09-13T03:11:33.655Z,13.37
2022-09-13T03:12:33.652Z,13.37
2022-09-13T03:13:33.641Z,13.38
2022-09-13T03:14:33.636Z,13.37
2022-09-13T03:15:33.630Z,13.37
2022-09-13T03:16:33.693Z,13.33
2022-09-13T03:17:33.620Z,13.35
2022-09-13T03:18:33.614Z,13.38
2022-09-13T03:19:33.607Z,13.25
2022-09-13T03:20:33.600Z,13.28
2022-09-13T03:21:33.594Z,13.33
2022-09-13T03:22:33.588Z,13.31
2022-09-13T03:23:33.583Z,13.25
2022-09-13T03:24:33.576Z,13.31
2022-09-13T03:25:33.571Z,13.19
2022-09-13T03:26:33.565Z,13.19
2022-09-13T03:27:33.559Z,13.23
2022-09-13T03:28:33.555Z,13.25
2022-09-13T03:29:33.548Z,13.18
2022-09-13T03:30:33.542Z,13.20
2022-09-13T03:31:33.617Z,13.18
2022-09-13T03:32:33.527Z,13.25
2022-09-13T03:33:33.526Z,13.18
2022-09-13T03:34:33.518Z,13.18
2022-09-13T03:35:33.517Z,13.22
2022-09-13T03:36:33.506Z,13.23
2022-09-13T03:37:33.500Z,13.20
2022-09-13T03:38:33.493Z,13.11
2022-09-13T03:39:33.490Z,13.15
2022-09-13T03:40:33.482Z,13.18
2022-09-13T03:41:33.478Z,13.19
2022-09-13T03:42:33.471Z,13.25
2022-09-13T03:43:33.520Z,13.22
2022-09-13T03:44:33.459Z,13.20
2022-09-13T03:45:33.496Z,13.25
2022-09-13T03:46:33.447Z,13.31
2022-09-13T03:47:33.443Z,13.35
2022-09-13T03:48:33.436Z,13.37
2022-09-13T03:49:33.429Z,13.37
2022-09-13T03:50:33.423Z,13.42
2022-09-13T03:51:33.418Z,13.47
2022-09-13T03:52:33.414Z,13.46
2022-09-13T03:53:33.433Z,13.52
2022-09-13T03:54:33.400Z,13.50
2022-09-13T03:55:33.408Z,13.54
2022-09-13T03:56:33.388Z,13.59
2022-09-13T03:57:33.382Z,13.59
2022-09-13T03:58:33.377Z,13.67
2022-09-13T03:59:33.373Z,13.62
2022-09-13T04:00:33.365Z,13.72
2022-09-13T04:01:33.392Z,13.70
2022-09-13T04:02:33.419Z,13.68
2022-09-13T04:03:33.349Z,13.71
2022-09-13T04:04:33.342Z,13.72
2022-09-13T04:05:33.337Z,13.78
2022-09-13T04:06:33.331Z,13.81
2022-09-13T04:07:33.326Z,13.77
2022-09-13T04:08:33.321Z,13.75
2022-09-13T04:09:33.314Z,13.78
2022-09-13T04:10:33.309Z,13.81
2022-09-13T04:11:33.307Z,13.77
2022-09-13T04:12:33.296Z,13.75
2022-09-13T04:13:33.292Z,13.79
2022-09-13T04:14:33.286Z,13.78
2022-09-13T04:15:33.325Z,13.81
2022-09-13T04:16:33.323Z,13.81
2022-09-13T04:17:33.268Z,13.77
2022-09-13T04:18:33.263Z,13.79
2022-09-13T04:19:33.257Z,13.85
2022-09-13T04:20:33.253Z,13.87
2022-09-13T04:21:33.246Z,13.89
2022-09-13T04:22:33.241Z,13.87
2022-09-13T04:23:33.235Z,13.85
2022-09-13T04:24:33.227Z,13.89
2022-09-13T04:25:33.224Z,13.87
2022-09-13T04:26:33.217Z,13.89
2022-09-13T04:27:33.213Z,13.79
2022-09-13T04:28:33.207Z,13.87
2022-09-13T04:29:33.216Z,13.89
2022-09-13T04:30:33.195Z,13.97
2022-09-13T04:31:33.271Z,13.96
2022-09-13T04:32:33.186Z,14.00
2022-09-13T04:33:33.179Z,14.00
2022-09-13T04:34:33.171Z,13.97
2022-09-13T04:35:33.166Z,14.04
2022-09-13T04:36:33.161Z,14.05
2022-09-13T04:37:33.158Z,13.99
2022-09-13T04:38:33.153Z,13.99
2022-09-13T04:39:33.149Z,14.08
2022-09-13T04:40:33.137Z,14.04
2022-09-13T04:41:33.132Z,14.00
2022-09-13T04:42:33.130Z,14.00
2022-09-13T04:43:33.123Z,14.04
2022-09-13T04:44:33.115Z,14.10
2022-09-13T04:45:33.142Z,14.08
2022-09-13T04:46:33.106Z,14.12
2022-09-13T04:47:33.100Z,14.17
2022-09-13T04:48:33.094Z,14.14
2022-09-13T04:49:33.087Z,14.15
2022-09-13T04:50:33.082Z,14.23
2022-09-13T04:51:33.077Z,14.28
2022-09-13T04:52:33.073Z,14.29
2022-09-13T04:53:33.064Z,14.29
2022-09-13T04:54:33.057Z,14.36
2022-09-13T04:55:33.058Z,14.33
2022-09-13T04:56:33.051Z,14.32
2022-09-13T04:57:33.044Z,14.32
2022-09-13T04:58:33.036Z,14.43
2022-09-13T04:59:33.035Z,14.51
2022-09-13T05:00:33.025Z,14.45
2022-09-13T05:01:33.059Z,14.44
2022-09-13T05:02:33.057Z,14.45
2022-09-13T05:03:33.010Z,14.51
2022-09-13T05:04:33.003Z,14.50
2022-09-13T05:05:33.000Z,14.53
2022-09-13T05:06:32.994Z,14.55
2022-09-13T05:07:32.987Z,14.62
2022-09-13T05:08:32.983Z,14.60
2022-09-13T05:09:32.979Z,14.55
2022-09-13T05:10:32.970Z,14.69
2022-09-13T05:11:32.965Z,14.70
2022-09-13T05:12:32.960Z,14.77
2022-09-13T05:13:32.953Z,14.66
2022-09-13T05:14:32.952Z,14.77
2022-09-13T05:15:32.943Z,14.72
2022-09-13T05:16:32.939Z,14.77
2022-09-13T05:17:32.931Z,14.78
2022-09-13T05:18:32.933Z,14.81
2022-09-13T05:19:33.033Z,14.79
2022-09-13T05:20:32.915Z,14.81
2022-09-13T05:21:32.912Z,14.81
2022-09-13T05:22:32.908Z,14.73
2022-09-13T05:23:32.905Z,14.72
2022-09-13T05:24:32.899Z,14.84
2022-09-13T05:25:32.888Z,14.72
2022-09-13T05:26:32.888Z,14.77
2022-09-13T05:27:32.882Z,14.73
2022-09-13T05:28:32.873Z,14.84
2022-09-13T05:29:32.867Z,14.86
2022-09-13T05:30:32.866Z,14.85
2022-09-13T05:31:32.912Z,14.85
2022-09-13T05:32:32.854Z,14.89
2022-09-13T05:33:32.844Z,14.86
2022-09-13T05:34:32.841Z,14.91
2022-09-13T05:35:32.837Z,14.89
2022-09-13T05:36:32.829Z,14.85
2022-09-13T05:37:32.823Z,14.88
2022-09-13T05:38:32.821Z,14.86
2022-09-13T05:39:48.355Z,14.89
2022-09-13T05:40:32.853Z,14.91
2022-09-13T05:41:32.803Z,14.85
2022-09-13T05:42:32.799Z,14.91
2022-09-13T05:43:32.794Z,14.86
2022-09-13T05:44:32.788Z,14.88
2022-09-13T05:45:32.777Z,14.89
2022-09-13T05:46:32.867Z,14.81
2022-09-13T05:47:32.772Z,14.84
2022-09-13T05:48:32.765Z,14.81
2022-09-13T05:49:32.763Z,14.82
2022-09-13T05:50:57.208Z,14.79
2022-09-13T05:51:32.820Z,14.69
2022-09-13T05:52:32.745Z,14.81
2022-09-13T05:53:32.739Z,14.79
2022-09-13T05:54:32.733Z,14.79
2022-09-13T05:55:32.730Z,14.78
2022-09-13T05:56:32.726Z,14.72
2022-09-13T05:57:32.720Z,14.78
2022-09-13T05:58:32.715Z,14.73
2022-09-13T05:59:32.709Z,14.77
2022-09-13T06:00:32.704Z,14.78
2022-09-13T06:01:32.891Z,14.84
2022-09-13T06:02:32.772Z,14.81
2022-09-13T06:03:32.691Z,14.77
2022-09-13T06:04:32.685Z,14.79
2022-09-13T06:05:32.678Z,14.78
2022-09-13T06:06:32.673Z,14.73
2022-09-13T06:07:32.670Z,14.77
2022-09-13T06:08:32.660Z,14.77
2022-09-13T06:09:32.659Z,14.72
2022-09-13T06:10:32.650Z,14.68
2022-09-13T06:11:32.647Z,14.65
2022-09-13T06:12:32.640Z,14.58
2022-09-13T06:13:32.642Z,14.54
2022-09-13T06:14:32.629Z,14.60
2022-09-13T06:15:32.627Z,14.48
2022-09-13T06:16:32.649Z,14.59
2022-09-13T06:17:32.615Z,14.58
2022-09-13T06:18:32.609Z,14.55
2022-09-13T06:19:32.605Z,14.50
2022-09-13T06:20:32.602Z,14.60
2022-09-13T06:21:32.597Z,14.54
2022-09-13T06:22:32.590Z,14.51
2022-09-13T06:23:32.585Z,14.43
2022-09-13T06:24:32.577Z,14.47
2022-09-13T06:25:32.573Z,14.40
2022-09-13T06:26:32.570Z,14.51
2022-09-13T06:27:32.565Z,14.40
2022-09-13T06:28:36.774Z,14.44
2022-09-13T06:29:32.553Z,14.40
2022-09-13T06:30:32.545Z,14.41
2022-09-13T06:31:32.603Z,14.36
2022-09-13T06:32:32.537Z,14.32
2022-09-13T06:33:32.532Z,14.40
2022-09-13T06:34:32.528Z,14.40
2022-09-13T06:35:32.523Z,14.43
2022-09-13T06:36:32.515Z,14.45
2022-09-13T06:37:32.511Z,14.48
2022-09-13T06:38:32.505Z,14.45
2022-09-13T06:39:32.500Z,14.47
2022-09-13T06:40:32.562Z,14.48
2022-09-13T06:41:32.489Z,14.50
2022-09-13T06:42:32.488Z,14.47
2022-09-13T06:43:32.480Z,14.44
2022-09-13T06:44:32.478Z,14.45
2022-09-13T06:45:32.469Z,14.54
2022-09-13T06:46:32.575Z,14.58
2022-09-13T06:47:32.523Z,14.65
2022-09-13T06:48:32.457Z,14.79
2022-09-13T06:49:32.447Z,14.84
2022-09-13T06:50:32.445Z,14.73
2022-09-13T06:51:32.454Z,14.84
2022-09-13T06:52:32.433Z,14.85
2022-09-13T06:53:32.427Z,14.89
2022-09-13T06:54:32.423Z,14.92
2022-09-13T06:55:32.411Z,14.88
2022-09-13T06:56:32.413Z,14.99
2022-09-13T06:57:32.405Z,14.99
2022-09-13T06:58:32.409Z,15.02
2022-09-13T06:59:32.399Z,15.03
2022-09-13T07:00:32.433Z,15.07
2022-09-13T07:01:32.495Z,15.15
2022-09-13T07:02:32.382Z,15.27
2022-09-13T07:03:32.378Z,15.29
2022-09-13T07:04:32.369Z,15.42
2022-09-13T07:05:39.535Z,15.43
2022-09-13T07:07:25.803Z,15.55
2022-09-13T07:08:25.782Z,15.54
2022-09-13T07:09:25.780Z,15.61
2022-09-13T07:10:25.775Z,15.61
2022-09-13T07:11:25.773Z,15.68
2022-09-13T07:12:25.764Z,15.65
2022-09-13T07:13:25.776Z,15.65
2022-09-13T07:14:25.754Z,15.65
2022-09-13T07:15:25.754Z,15.67
2022-09-13T07:16:25.758Z,15.72
2022-09-13T07:17:28.516Z,15.68
2022-09-13T07:18:25.736Z,15.72
2022-09-13T07:19:25.733Z,15.72
2022-09-13T07:20:25.728Z,15.76
2022-09-13T07:21:25.729Z,15.79
2022-09-13T07:22:25.718Z,15.84
2022-09-13T07:23:25.714Z,15.83
2022-09-13T07:24:25.714Z,15.91
2022-09-13T07:25:25.711Z,15.83
2022-09-13T07:26:25.700Z,16.01
2022-09-13T07:27:25.698Z,16.04
2022-09-13T07:28:27.499Z,16.02
2022-09-13T07:29:25.689Z,16.09
2022-09-13T07:30:25.684Z,16.17
2022-09-13T07:31:25.698Z,16.21
2022-09-13T07:32:25.673Z,16.35
2022-09-13T07:33:25.669Z,16.31
2022-09-13T07:34:25.657Z,16.31
2022-09-13T07:35:25.659Z,16.28
2022-09-13T07:36:25.654Z,16.38
2022-09-13T07:37:25.647Z,16.47
2022-09-13T07:38:25.655Z,16.39
2022-09-13T07:39:25.641Z,16.51
2022-09-13T07:40:25.677Z,16.50
2022-09-13T07:41:25.632Z,16.50
2022-09-13T07:42:25.639Z,16.49
2022-09-13T07:43:25.624Z,16.65
2022-09-13T07:44:25.623Z,16.71
2022-09-13T07:45:25.615Z,16.64
2022-09-13T07:46:25.659Z,16.83
2022-09-13T07:47:25.608Z,16.86
2022-09-13T07:48:25.603Z,16.91
2022-09-13T07:49:25.597Z,16.93
2022-09-13T07:50:25.595Z,16.99
2022-09-13T07:51:25.590Z,17.08
2022-09-13T07:52:25.586Z,17.16
2022-09-13T07:53:25.583Z,17.22
2022-09-13T07:54:25.581Z,17.16
2022-09-13T07:55:25.570Z,17.23
2022-09-13T07:56:25.572Z,17.27
2022-09-13T07:57:25.566Z,17.24
2022-09-13T07:58:25.565Z,17.33
2022-09-13T07:59:29.557Z,17.34
2022-09-13T08:00:26.245Z,17.36
2022-09-13T08:01:25.601Z,17.44
2022-09-13T08:02:25.593Z,17.44
2022-09-13T08:03:25.541Z,17.48
2022-09-13T08:04:25.540Z,17.63
2022-09-13T08:05:25.536Z,17.60
2022-09-13T08:06:25.533Z,17.68
2022-09-13T08:07:25.535Z,17.83
2022-09-13T08:08:25.533Z,17.83
2022-09-13T08:09:25.525Z,17.92
2022-09-13T08:10:25.518Z,17.90
2022-09-13T08:11:25.523Z,18.03
2022-09-13T08:12:25.509Z,18.03
2022-09-13T08:13:25.509Z,18.19
2022-09-13T08:14:25.506Z,18.22
2022-09-13T08:15:25.573Z,18.23
2022-09-13T08:16:25.501Z,18.38
2022-09-13T08:17:25.496Z,18.25
2022-09-13T08:18:25.493Z,18.16
2022-09-13T08:19:25.490Z,18.25
2022-09-13T08:20:25.486Z,18.28
2022-09-13T08:21:25.482Z,18.28
2022-09-13T08:22:25.478Z,18.40
2022-09-13T08:23:25.474Z,18.41
2022-09-13T08:24:25.471Z,18.45
2022-09-13T08:25:25.469Z,18.40
2022-09-13T08:26:25.468Z,18.52
2022-09-13T08:27:25.462Z,18.55
2022-09-13T08:28:27.639Z,18.62
2022-09-13T08:29:25.455Z,18.56
2022-09-13T08:30:25.456Z,18.66
2022-09-13T08:31:25.496Z,18.74
2022-09-13T08:32:25.446Z,18.74
2022-09-13T08:33:25.445Z,18.70
2022-09-13T08:34:25.442Z,18.74
2022-09-13T08:35:25.438Z,18.73
2022-09-13T08:36:25.448Z,18.77
2022-09-13T08:37:25.438Z,18.70
2022-09-13T08:38:25.431Z,18.89
2022-09-13T08:39:25.427Z,18.83
2022-09-13T08:40:25.460Z,18.86
2022-09-13T08:41:25.422Z,18.98
2022-09-13T08:42:25.418Z,18.84
2022-09-13T08:43:25.416Z,18.98
2022-09-13T08:44:25.413Z,18.89
2022-09-13T08:45:25.412Z,18.98
2022-09-13T08:46:25.429Z,18.96
2022-09-13T08:47:25.473Z,19.07
2022-09-13T08:48:25.404Z,19.15
2022-09-13T08:49:25.403Z,19.12
2022-09-13T08:50:25.398Z,19.04
2022-09-13T08:51:25.394Z,19.11
2022-09-13T08:52:25.391Z,19.08
2022-09-13T08:53:25.393Z,19.15
2022-09-13T08:54:25.388Z,19.12
2022-09-13T08:55:25.384Z,19.09
2022-09-13T08:56:25.384Z,19.18
2022-09-13T08:57:25.377Z,19.22
2022-09-13T08:58:25.380Z,19.21
2022-09-13T08:59:25.377Z,19.19
2022-09-13T09:00:25.373Z,19.34
2022-09-13T09:01:25.401Z,19.16
2022-09-13T09:02:25.390Z,19.33
2022-09-13T09:03:25.364Z,19.30
2022-09-13T09:04:25.363Z,19.22
2022-09-13T09:05:25.361Z,19.34
2022-09-13T09:06:25.352Z,19.45
2022-09-13T09:07:25.353Z,19.56
2022-09-13T09:08:25.354Z,19.54
2022-09-13T09:09:25.349Z,19.56
2022-09-13T09:10:25.346Z,19.49
2022-09-13T09:11:25.345Z,19.36
2022-09-13T09:12:25.343Z,19.45
2022-09-13T09:13:25.342Z,19.51
2022-09-13T09:14:25.340Z,19.56
2022-09-13T09:15:25.334Z,19.59
2022-09-13T09:16:25.334Z,19.56
2022-09-13T09:17:25.330Z,19.58
2022-09-13T09:18:25.330Z,19.52
2022-09-13T09:19:25.327Z,19.64
2022-09-13T09:20:25.328Z,19.55
2022-09-13T09:21:25.326Z,19.56
2022-09-13T09:22:25.320Z,19.62
2022-09-13T09:23:25.314Z,19.67
2022-09-13T09:24:25.320Z,19.69
2022-09-13T09:25:25.308Z,19.69
2022-09-13T09:26:25.309Z,19.67
2022-09-13T09:27:25.394Z,19.67
2022-09-13T09:28:25.310Z,19.67
2022-09-13T09:29:25.368Z,19.81
2022-09-13T09:30:25.308Z,19.86
2022-09-13T09:31:25.338Z,20.02
2022-09-13T09:32:25.295Z,20.09
2022-09-13T09:33:25.294Z,20.21
2022-09-13T09:34:25.309Z,20.40
2022-09-13T09:35:25.290Z,20.58
2022-09-13T09:36:25.286Z,20.75
2022-09-13T09:37:25.285Z,20.84
2022-09-13T09:38:25.287Z,20.92
2022-09-13T09:39:25.289Z,20.99
2022-09-13T09:40:29.725Z,21.05
2022-09-13T09:41:25.284Z,21.20
2022-09-13T09:42:25.278Z,21.25
2022-09-13T09:43:25.275Z,21.30
2022-09-13T09:44:25.274Z,21.29
2022-09-13T09:45:25.272Z,21.15
2022-09-13T09:46:25.311Z,21.05
2022-09-13T09:47:29.277Z,20.97
2022-09-13T09:48:25.267Z,20.88
2022-09-13T09:49:25.265Z,20.90
2022-09-13T09:50:25.264Z,20.77
2022-09-13T09:51:25.261Z,20.75
2022-09-13T09:52:25.261Z,20.90
2022-09-13T09:53:25.259Z,20.95
2022-09-13T09:54:25.258Z,20.99
2022-09-13T09:55:25.259Z,21.06
2022-09-13T09:56:25.256Z,21.21
2022-09-13T09:57:25.250Z,21.37
2022-09-13T09:58:25.252Z,21.42
2022-09-13T09:59:25.265Z,21.48
2022-09-13T10:00:25.248Z,21.51
2022-09-13T10:01:25.299Z,21.50
2022-09-13T10:02:25.282Z,21.67
2022-09-13T10:03:25.245Z,21.57
2022-09-13T10:04:25.242Z,21.48
2022-09-13T10:05:25.242Z,21.43
2022-09-13T10:06:25.240Z,21.46
2022-09-13T10:07:25.238Z,21.43
2022-09-13T10:08:25.243Z,21.33
2022-09-13T10:09:25.239Z,21.39
2022-09-13T10:10:25.235Z,21.30
2022-09-13T10:11:25.232Z,21.32
2022-09-13T10:12:25.233Z,21.40
2022-09-13T10:13:29.706Z,21.52
2022-09-13T10:14:25.229Z,21.50
2022-09-13T10:15:25.226Z,21.50
2022-09-13T10:16:25.303Z,21.43
2022-09-13T10:17:25.225Z,21.66
2022-09-13T10:18:44.432Z,21.57
2022-09-13T10:19:25.229Z,21.80
2022-09-13T10:20:25.226Z,21.67
2022-09-13T10:21:25.221Z,21.88
2022-09-13T10:22:25.218Z,21.92
2022-09-13T10:23:25.219Z,21.89
2022-09-13T10:24:25.209Z,21.77
2022-09-13T10:25:25.214Z,21.69
2022-09-13T10:26:25.218Z,21.75
2022-09-13T10:27:25.211Z,21.55
2022-09-13T10:28:25.208Z,21.48
2022-09-13T10:29:25.209Z,21.37
2022-09-13T10:30:25.229Z,21.18
2022-09-13T10:31:25.236Z,21.02
2022-09-13T10:32:25.230Z,20.92
2022-09-13T10:33:25.205Z,20.80
2022-09-13T10:34:25.201Z,20.67
2022-09-13T10:35:25.203Z,20.63
2022-09-13T10:36:50.637Z,20.55
2022-09-13T10:37:25.202Z,20.50
2022-09-13T10:38:25.199Z,20.52
2022-09-13T10:39:25.198Z,20.58
2022-09-13T10:40:25.227Z,20.56
2022-09-13T10:41:25.198Z,20.66
2022-09-13T10:42:25.192Z,20.67
2022-09-13T10:43:25.191Z,20.72
2022-09-13T10:44:25.193Z,20.65
2022-09-13T10:45:25.188Z,20.67
2022-09-13T10:46:25.199Z,20.80
2022-09-13T10:47:25.182Z,20.95
2022-09-13T10:48:25.184Z,20.97
2022-09-13T10:49:25.182Z,21.03
2022-09-13T10:50:25.181Z,21.03
2022-09-13T10:51:25.181Z,21.12
2022-09-13T10:52:25.180Z,21.33
2022-09-13T10:53:25.176Z,21.36
2022-09-13T10:54:25.178Z,21.33
2022-09-13T10:55:25.180Z,21.36
2022-09-13T10:56:25.174Z,21.27
2022-09-13T10:57:25.171Z,21.22
2022-09-13T10:58:25.178Z,21.18
2022-09-13T10:59:25.170Z,21.22
2022-09-13T11:00:25.168Z,21.03
2022-09-13T11:01:25.191Z,21.09
2022-09-13T11:02:25.162Z,21.03
2022-09-13T11:03:25.164Z,21.03
2022-09-13T11:04:25.175Z,20.99
2022-09-13T11:05:25.160Z,21.07
2022-09-13T11:06:25.160Z,20.95
2022-09-13T11:07:25.156Z,20.99
2022-09-13T11:08:25.158Z,20.95
2022-09-13T11:09:25.159Z,20.80
2022-09-13T11:10:25.154Z,20.67
2022-09-13T11:11:25.155Z,20.56
2022-09-13T11:12:25.157Z,20.52
2022-09-13T11:13:25.151Z,20.55
2022-09-13T11:14:25.155Z,20.37
2022-09-13T11:15:25.147Z,20.36
2022-09-13T11:16:25.187Z,20.39
2022-09-13T11:17:25.140Z,20.25
2022-09-13T11:18:25.144Z,20.10
2022-09-13T11:19:25.144Z,20.22
2022-09-13T11:20:25.166Z,20.22
2022-09-13T11:21:25.137Z,20.21
2022-09-13T11:22:25.133Z,20.14
2022-09-13T11:23:25.133Z,20.10
2022-09-13T11:24:25.138Z,20.07
2022-09-13T11:25:25.130Z,20.11
2022-09-13T11:26:25.127Z,20.04
2022-09-13T11:27:25.127Z,19.84
2022-09-13T11:28:25.129Z,19.91
2022-09-13T11:29:25.121Z,19.88
2022-09-13T11:30:29.662Z,19.89
2022-09-13T11:31:25.145Z,19.86
2022-09-13T11:32:25.120Z,19.85
2022-09-13T11:33:25.124Z,19.67
2022-09-13T11:34:25.114Z,19.76
2022-09-13T11:35:25.111Z,19.77
2022-09-13T11:36:25.110Z,19.67
2022-09-13T11:37:25.109Z,19.74
2022-09-13T11:38:25.106Z,19.64
2022-09-13T11:39:25.103Z,19.62
2022-09-13T11:40:25.164Z,19.69
2022-09-13T11:41:25.100Z,19.59
2022-09-13T11:42:25.098Z,19.69
2022-09-13T11:43:25.096Z,19.69
2022-09-13T11:44:25.094Z,19.69
2022-09-13T11:45:25.092Z,19.67
2022-09-13T11:46:25.088Z,19.69
2022-09-13T11:47:25.086Z,19.77
2022-09-13T11:48:25.087Z,19.66
2022-09-13T11:49:25.080Z,19.76
2022-09-13T11:50:25.079Z,19.74
2022-09-13T11:51:25.079Z,19.76
2022-09-13T11:52:25.078Z,19.69
2022-09-13T11:53:29.864Z,19.71
2022-09-13T11:54:25.068Z,19.79
2022-09-13T11:55:25.066Z,19.77
2022-09-13T11:56:25.065Z,19.66
2022-09-13T11:57:25.063Z,19.74
2022-09-13T11:58:25.060Z,19.81
2022-09-13T11:59:25.058Z,19.91
2022-09-13T12:00:25.055Z,19.86
2022-09-13T12:01:25.055Z,19.94
2022-09-13T12:02:25.119Z,19.85
2022-09-13T12:03:25.135Z,19.86
2022-09-13T12:04:25.740Z,19.95
2022-09-13T12:05:25.054Z,19.95
2022-09-13T12:06:25.041Z,19.85
2022-09-13T12:07:25.037Z,19.86
2022-09-13T12:08:25.038Z,19.91
2022-09-13T12:09:25.042Z,19.85
2022-09-13T12:10:25.044Z,19.82
2022-09-13T12:11:25.031Z,19.86
2022-09-13T12:12:25.028Z,19.85
2022-09-13T12:13:25.027Z,19.88
2022-09-13T12:14:25.026Z,19.84
2022-09-13T12:15:25.021Z,19.99
2022-09-13T12:16:25.060Z,20.14
2022-09-13T12:17:25.020Z,20.14
2022-09-13T12:18:25.013Z,20.22
2022-09-13T12:19:25.010Z,20.19
2022-09-13T12:20:25.013Z,20.32
2022-09-13T12:21:25.009Z,20.36
2022-09-13T12:22:28.883Z,20.37
2022-09-13T12:23:25.004Z,20.51
2022-09-13T12:24:25.002Z,20.56
2022-09-13T12:25:25.000Z,20.60
2022-09-13T12:26:24.999Z,20.74
2022-09-13T12:27:24.996Z,20.81
2022-09-13T12:28:24.994Z,20.81
2022-09-13T12:29:24.993Z,20.78
2022-09-13T12:30:24.994Z,20.78
2022-09-13T12:31:25.055Z,20.80
2022-09-13T12:32:24.988Z,20.67
2022-09-13T12:33:24.987Z,20.74
2022-09-13T12:34:24.987Z,20.72
2022-09-13T12:35:24.981Z,20.70
2022-09-13T12:36:24.983Z,20.59
2022-09-13T12:37:24.981Z,20.69
2022-09-13T12:38:28.224Z,20.72
2022-09-13T12:39:24.984Z,20.78
2022-09-13T12:40:25.008Z,20.84
2022-09-13T12:41:24.971Z,20.88
2022-09-13T12:42:24.970Z,20.95
2022-09-13T12:43:24.965Z,21.02
2022-09-13T12:44:24.963Z,21.09
2022-09-13T12:45:25.006Z,21.17
2022-09-13T12:46:24.963Z,21.25
2022-09-13T12:47:25.087Z,21.29
2022-09-13T12:48:24.960Z,21.25
2022-09-13T12:49:24.960Z,21.20
2022-09-13T12:51:24.953Z,21.03
2022-09-13T12:52:24.953Z,21.11
2022-09-13T12:53:24.956Z,21.03
2022-09-13T12:54:24.953Z,20.93
2022-09-13T12:55:45.998Z,20.92
2022-09-13T12:56:24.950Z,20.80
2022-09-13T12:57:24.944Z,20.58
2022-09-13T12:58:24.946Z,20.47
2022-09-13T12:59:24.936Z,20.39
2022-09-13T13:00:24.939Z,20.28
2022-09-13T13:01:25.060Z,20.29
2022-09-13T13:02:24.937Z,20.21
2022-09-13T13:03:24.938Z,20.16
2022-09-13T13:04:24.935Z,20.11
2022-09-13T13:05:24.933Z,19.96
2022-09-13T13:06:33.106Z,20.02
2022-09-13T13:08:28.946Z,19.92
2022-09-13T13:09:29.209Z,19.84
2022-09-13T13:11:32.946Z,19.94
2022-09-13T13:12:32.939Z,20.04
2022-09-13T13:14:36.936Z,20.22
2022-09-13T13:15:36.935Z,20.31
2022-09-13T13:17:29.870Z,20.37
2022-09-13T13:18:29.919Z,20.50
2022-09-13T13:20:33.855Z,20.41
2022-09-13T13:21:33.847Z,20.51
2022-09-13T13:23:37.886Z,20.62
2022-09-13T13:24:37.829Z,20.58
2022-09-13T13:26:41.815Z,20.81